EW1993 Weather Reports


time (UTC)temp
C
wind
direction
speed
KPH
gust
KPH
rain 1hr
cm
rain 24hr
cm
rain mn
cm
humidity
%
barometer
mb
20220927002151 13 305 8.0 24.1 0.00 0.30 0.00 77 1006.7
20220927000652 13 271 6.4 20.9 0.00 0.30 0.00 72 1006.6
20220926235319 13 255 8.0 27.4 0.00 0.30 0.00 73 1006.5
20220926225157 13 99 6.4 19.3 0.00 0.30 0.30 72 1006.7
20220926225152 13 288 6.4 29.0 0.00 0.30 0.30 72 1006.5
20220926215152 13 203 6.4 22.5 0.00 0.30 0.30 72 1006.4
20220926212150 14 148 8.0 19.3 0.00 0.30 0.30 70 1006.5
20220926210653 14 186 9.7 25.7 0.00 0.30 0.30 70 1006.7
20220926202152 14 229 9.7 25.7 0.00 0.30 0.30 71 1006.6
20220926200654 13 232 8.0 24.1 0.00 0.30 0.30 71 1006.5
20220926195327 14 276 8.0 24.1 0.00 0.30 0.30 71 1006.6
20220926185150 14 163 8.0 24.1 0.00 0.30 0.30 70 1006.4
20220926182151 13 272 8.0 20.9 0.00 0.30 0.30 69 1006.3
20220926175152 14 155 8.0 25.7 0.00 0.30 0.30 72 1006.0
20220926172152 14 195 11.3 30.6 0.00 0.30 0.30 67 1005.8
20220926165150 15 208 9.7 24.1 0.00 0.30 0.30 66 1005.7
20220926163656 15 217 8.0 25.7 0.00 0.30 0.30 71 1005.4
20220926162150 15 184 11.3 27.4 0.00 0.30 0.30 65 1005.5
20220926153652 16 306 9.7 29.0 0.00 0.30 0.30 64 1005.2
20220926150652 15 170 9.7 27.4 0.00 0.30 0.30 65 1005.0
20220926142151 16 248 9.7 30.6 0.00 0.30 0.30 64 1004.9
20220926135151 17 227 9.7 24.1 0.00 0.30 0.30 57 1004.5
20220926132152 17 197 9.7 27.4 0.00 0.30 0.30 52 1004.3
20220926125157 15 273 9.7 27.4 0.00 0.30 0.30 67 1004.5
20220926125151 16 260 11.3 25.7 0.00 0.30 0.30 59 1004.5
20220926120653 16 283 9.7 27.4 0.00 0.30 0.30 67 1004.3
20220926112151 15 204 9.7 24.1 0.00 0.30 0.30 70 1004.4
20220926105151 15 135 8.0 32.2 0.00 0.30 0.30 67 1004.4
20220926103654 15 190 11.3 27.4 0.00 0.30 0.30 67 1004.4
20220926100655 15 215 11.3 27.4 0.00 0.30 0.30 71 1004.4
20220926092152 15 230 8.0 24.1 0.00 0.30 0.30 71 1004.0
20220926090653 14 254 8.0 27.4 0.00 0.30 0.30 72 1003.5
20220926083652 14 259 6.4 16.1 0.00 0.30 0.30 77 1003.6
20220926075150 14 154 8.0 20.9 0.00 0.30 0.30 77 1003.5
20220926072154 14 296 8.0 24.1 0.00 0.30 0.30 80 1003.0
20220926065156 14 189 8.0 22.5 0.00 0.30 0.30 84 1003.0
20220926062155 14 314 9.7 25.7 0.05 0.30 0.30 85 1002.8
20220926060657 14 184 8.0 27.4 0.08 0.30 0.30 89 1002.8
20220926053657 15 253 8.0 25.7 0.03 0.25 0.25 95 1003.1
20220926045154 13 144 6.4 19.3 0.00 0.23 0.23 95 1003.6
20220926043658 13 165 8.0 24.1 0.03 0.23 0.23 95 1004.4
20220926035152 13 142 6.4 16.1 0.13 0.23 0.23 95 1005.2
20220926032152 13 131 6.4 14.5 0.15 0.20 0.20 94 1006.5
20220926030650 13 151 1.6 11.3 0.08 0.10 0.10 93 1007.0
20220926022148 13 145 6.4 16.1 0.03 0.05 0.05 92 1007.6
20220926020651 13 154 8.0 16.1 0.00 0.03 0.03 91 1008.5
20220926012149 13 165 6.4 16.1 0.03 0.03 0.03 90 1009.4
20220926005147 13 152 6.4 12.9 0.03 0.03 0.03 87 1010.1